Terminal Aerodrome Forecast
Issued by NWS

Home | Current Version | Previous Version | Text Only | Print | Product List | Glossary On
Versions: 1 2 3 4 5 6 7 8 9 10 11 12 13 14 15 16 17 18 19 20 21 22 23
153
FTUS43 KICT 231726
TAFRSL
TAF
KRSL 231726Z 2318/2418 04007KT P6SM BKN010
     FM240100 08009KT P6SM -FZDZ BKN009
     FM240600 07011KT 4SM -FZDZ OVC004=

USA.gov is the U.S. government's official web portal to all federal, state and local government web resources and services.